Time;durP1;ratioP1;P1;durP2;ratioP2;P2;SDS_P1;SDS_P2;PMS_P1;PMS_P2;Temp;Humidity;BMP_temperature;BMP_pressure;BME280_temperature;BME280_humidity;BME280_pressure;Samples;Min_cycle;Max_cycle;Signal;HPM_P1;HPM_P2
2022/05/07 00:01:20;;;;;;;6.93;4.07;;;;;;;;;;5052946;28;20418;-83
2022/05/07 00:03:46;;;;;;;3.90;3.80;;;;;;;;;;5052842;28;20415;-77
2022/05/07 00:06:12;;;;;;;5.23;3.97;;;;;;;;;;5053052;28;20432;-80
2022/05/07 00:08:38;;;;;;;3.63;3.40;;;;;;;;;;5057126;28;20425;-83
2022/05/07 00:11:04;;;;;;;5.57;3.70;;;;;;;;;;5056963;28;20556;-81
2022/05/07 00:13:31;;;;;;;4.60;4.23;;;;;;;;;;5057257;28;20906;-82
2022/05/07 00:18:41;;;;;;;3.67;3.47;;;;;;;;;;5057218;28;20418;-80
2022/05/07 00:21:08;;;;;;;4.23;3.93;;;;;;;;;;5056866;28;20418;-81
2022/05/07 00:23:34;;;;;;;3.67;3.47;;;;;;;;;;5057488;28;20418;-82
2022/05/07 00:26:00;;;;;;;3.70;3.60;;;;;;;;;;5056984;28;20508;-82
2022/05/07 00:28:26;;;;;;;3.50;3.40;;;;;;;;;;5056969;28;20472;-78
2022/05/07 00:30:52;;;;;;;11.23;3.43;;;;;;;;;;5056601;28;20913;-83
2022/05/07 00:33:18;;;;;;;4.33;4.13;;;;;;;;;;5056608;28;20446;-81
2022/05/07 00:35:44;;;;;;;4.80;3.63;;;;;;;;;;5056955;28;20422;-81
2022/05/07 00:38:10;;;;;;;4.03;3.67;;;;;;;;;;5056787;28;20433;-83
2022/05/07 00:40:36;;;;;;;3.10;2.90;;;;;;;;;;5056491;28;20910;-81
2022/05/07 00:43:02;;;;;;;3.37;3.13;;;;;;;;;;5056660;28;20415;-80
2022/05/07 00:45:28;;;;;;;3.27;3.27;;;;;;;;;;5056696;28;20422;-82
2022/05/07 00:47:54;;;;;;;4.07;3.73;;;;;;;;;;5056564;28;20426;-81
2022/05/07 00:53:05;;;;;;;3.27;3.17;;;;;;;;;;5056600;28;20440;-80
2022/05/07 00:55:31;;;;;;;3.00;2.90;;;;;;;;;;5055034;28;20514;-80
2022/05/07 00:57:57;;;;;;;3.73;3.53;;;;;;;;;;5056393;28;20422;-81
2022/05/07 01:00:23;;;;;;;3.87;3.77;;;;;;;;;;5056671;28;20418;-82
2022/05/07 01:02:49;;;;;;;3.67;3.57;;;;;;;;;;5056335;28;20477;-80
2022/05/07 01:05:15;;;;;;;4.30;4.10;;;;;;;;;;5056161;28;20410;-82
2022/05/07 01:07:43;;;;;;;3.30;3.20;;;;;;;;;;5056253;28;20457;-78
2022/05/07 01:10:09;;;;;;;3.83;3.63;;;;;;;;;;5056182;28;22719;-82
2022/05/07 01:12:36;;;;;;;4.40;4.00;;;;;;;;;;5056163;28;20430;-82
2022/05/07 01:15:02;;;;;;;10.23;3.40;;;;;;;;;;5056159;28;20410;-81
2022/05/07 01:17:31;;;;;;;10.90;5.20;;;;;;;;;;5055798;28;20447;-78
2022/05/07 01:19:57;;;;;;;4.07;3.50;;;;;;;;;;5055127;28;20883;-75
2022/05/07 01:22:23;;;;;;;7.73;3.67;;;;;;;;;;5056014;28;20513;-80
2022/05/07 01:24:49;;;;;;;4.50;4.10;;;;;;;;;;5055933;28;20526;-83
2022/05/07 01:27:15;;;;;;;3.60;3.40;;;;;;;;;;5056004;28;20445;-80
2022/05/07 01:29:41;;;;;;;8.17;3.50;;;;;;;;;;5055653;28;20472;-82
2022/05/07 01:32:07;;;;;;;4.00;3.80;;;;;;;;;;5055506;28;20854;-82
2022/05/07 01:34:33;;;;;;;3.43;3.33;;;;;;;;;;5055693;28;20511;-80
2022/05/07 01:36:59;;;;;;;3.77;3.67;;;;;;;;;;5056145;28;20430;-82
2022/05/07 01:39:25;;;;;;;3.80;3.50;;;;;;;;;;5055513;28;20445;-82
2022/05/07 01:41:51;;;;;;;3.37;3.07;;;;;;;;;;5055667;28;20454;-80
2022/05/07 01:44:17;;;;;;;3.70;3.60;;;;;;;;;;5055264;28;20425;-82
2022/05/07 01:49:27;;;;;;;4.40;3.90;;;;;;;;;;5055863;28;20437;-83
2022/05/07 01:51:53;;;;;;;4.00;3.33;;;;;;;;;;5054996;28;20482;-83
2022/05/07 01:54:19;;;;;;;3.40;3.20;;;;;;;;;;5055240;28;20414;-82
2022/05/07 01:56:45;;;;;;;4.10;3.90;;;;;;;;;;5055059;28;20410;-82
2022/05/07 01:59:11;;;;;;;4.43;4.22;;;;;;;;;;5054640;28;20428;-82
2022/05/07 02:01:37;;;;;;;9.67;4.20;;;;;;;;;;5055275;28;20223;-82
2022/05/07 02:07:08;;;;;;;3.47;3.23;;;;;;;;;;5054920;28;20394;-82
2022/05/07 02:09:35;;;;;;;3.10;3.00;;;;;;;;;;5054927;28;20982;-82
2022/05/07 02:12:01;;;;;;;10.20;3.73;;;;;;;;;;5054987;28;20490;-82
2022/05/07 02:14:27;;;;;;;9.70;3.97;;;;;;;;;;5055153;28;20486;-82
2022/05/07 02:16:53;;;;;;;3.37;3.23;;;;;;;;;;5054681;28;20957;-81
2022/05/07 02:19:19;;;;;;;3.63;3.30;;;;;;;;;;5054916;28;20406;-82
2022/05/07 02:21:45;;;;;;;8.83;3.20;;;;;;;;;;5054574;28;20782;-77
2022/05/07 02:24:11;;;;;;;3.90;3.80;;;;;;;;;;5054809;28;20426;-81
2022/05/07 02:26:37;;;;;;;4.20;3.70;;;;;;;;;;5054735;28;20416;-80
2022/05/07 02:29:03;;;;;;;3.70;3.57;;;;;;;;;;5054667;28;20497;-82
2022/05/07 02:31:29;;;;;;;3.67;3.57;;;;;;;;;;5054328;28;20474;-81
2022/05/07 02:33:56;;;;;;;3.40;2.70;;;;;;;;;;5054854;28;20414;-82
2022/05/07 02:36:22;;;;;;;3.50;3.40;;;;;;;;;;5054561;28;20422;-80
2022/05/07 02:38:48;;;;;;;3.40;3.20;;;;;;;;;;5054825;28;20414;-82
2022/05/07 02:43:58;;;;;;;3.77;3.67;;;;;;;;;;5054498;28;20410;-82
2022/05/07 02:46:24;;;;;;;3.47;3.27;;;;;;;;;;5054858;28;20879;-82
2022/05/07 02:48:50;;;;;;;4.80;4.30;;;;;;;;;;5054125;28;20775;-81
2022/05/07 02:51:17;;;;;;;5.93;3.97;;;;;;;;;;5053883;28;20549;-81
2022/05/07 02:53:43;;;;;;;4.57;4.27;;;;;;;;;;5054198;28;20433;-82
2022/05/07 02:56:09;;;;;;;5.07;4.87;;;;;;;;;;5054216;28;20438;-82
2022/05/07 02:58:35;;;;;;;5.17;4.23;;;;;;;;;;5054377;28;20934;-82
2022/05/07 03:01:01;;;;;;;5.20;4.90;;;;;;;;;;5053962;28;20415;-81
2022/05/07 03:03:27;;;;;;;4.03;3.87;;;;;;;;;;5054200;28;20472;-82
2022/05/07 03:05:54;;;;;;;5.00;4.70;;;;;;;;;;5054012;28;20418;-80
2022/05/07 03:08:21;;;;;;;4.10;3.77;;;;;;;;;;5053817;28;20792;-82
2022/05/07 03:10:47;;;;;;;4.50;4.03;;;;;;;;;;5053835;28;20477;-81
2022/05/07 03:13:13;;;;;;;3.87;3.67;;;;;;;;;;5053943;28;20415;-81
2022/05/07 03:15:39;;;;;;;10.10;3.97;;;;;;;;;;5053797;28;20440;-81
2022/05/07 03:18:05;;;;;;;4.30;4.00;;;;;;;;;;5053637;28;20521;-82
2022/05/07 03:20:31;;;;;;;3.67;3.50;;;;;;;;;;5053674;28;20422;-82
2022/05/07 03:22:58;;;;;;;5.40;4.57;;;;;;;;;;5053658;28;20423;-83
2022/05/07 03:25:24;;;;;;;5.90;4.07;;;;;;;;;;5053871;28;20419;-82
2022/05/07 03:27:50;;;;;;;4.70;3.63;;;;;;;;;;5053770;28;20418;-80
2022/05/07 03:30:16;;;;;;;4.30;3.80;;;;;;;;;;5053465;28;20984;-77
2022/05/07 03:32:42;;;;;;;4.23;3.40;;;;;;;;;;5053535;28;20419;-82
2022/05/07 03:35:08;;;;;;;3.27;3.17;;;;;;;;;;5053621;28;20812;-80
2022/05/07 03:37:34;;;;;;;5.17;3.50;;;;;;;;;;5053471;28;20419;-77
2022/05/07 03:40:00;;;;;;;3.00;2.90;;;;;;;;;;5053675;28;20455;-80
2022/05/07 03:42:28;;;;;;;3.67;3.57;;;;;;;;;;5053101;28;20422;-80
2022/05/07 03:44:55;;;;;;;3.00;2.90;;;;;;;;;;5053601;28;20484;-77
2022/05/07 03:47:21;;;;;;;4.50;3.13;;;;;;;;;;5053368;28;20920;-81
2022/05/07 03:49:47;;;;;;;2.87;2.70;;;;;;;;;;5053017;28;20414;-81
2022/05/07 03:54:58;;;;;;;5.30;5.00;;;;;;;;;;5053574;28;20418;-82
2022/05/07 03:57:23;;;;;;;2.80;2.80;;;;;;;;;;5053016;28;20861;-81
2022/05/07 03:59:49;;;;;;;9.13;3.40;;;;;;;;;;5053299;28;20492;-81
2022/05/07 04:02:15;;;;;;;5.93;2.87;;;;;;;;;;5053422;28;20414;-82
2022/05/07 04:04:42;;;;;;;5.33;4.27;;;;;;;;;;5053302;28;20445;-82
2022/05/07 04:07:09;;;;;;;5.60;3.57;;;;;;;;;;5053033;28;20505;-82
2022/05/07 04:09:36;;;;;;;12.80;3.10;;;;;;;;;;5053193;28;20436;-82
2022/05/07 04:12:02;;;;;;;18.77;3.63;;;;;;;;;;5052712;28;20478;-82
2022/05/07 04:14:28;;;;;;;3.37;3.00;;;;;;;;;;5052911;28;20418;-82
2022/05/07 04:16:54;;;;;;;3.73;3.43;;;;;;;;;;5053189;28;20422;-82
2022/05/07 04:19:20;;;;;;;5.93;2.80;;;;;;;;;;5053106;28;20418;-82
2022/05/07 04:21:46;;;;;;;3.27;3.27;;;;;;;;;;5053247;28;20415;-83
2022/05/07 04:24:12;;;;;;;3.83;3.53;;;;;;;;;;5053616;28;20513;-82
2022/05/07 04:26:38;;;;;;;3.57;3.47;;;;;;;;;;5052867;28;20421;-82
2022/05/07 04:29:04;;;;;;;3.70;3.60;;;;;;;;;;5052742;28;20406;-80
2022/05/07 04:31:30;;;;;;;3.73;3.53;;;;;;;;;;5052888;28;21012;-82
2022/05/07 04:33:56;;;;;;;5.37;4.10;;;;;;;;;;5052657;28;20414;-80
2022/05/07 04:36:22;;;;;;;4.33;4.03;;;;;;;;;;5052843;28;20564;-80
2022/05/07 04:38:48;;;;;;;3.67;3.60;;;;;;;;;;5053099;28;20472;-79
2022/05/07 04:41:14;;;;;;;3.50;3.23;;;;;;;;;;5052785;28;20422;-82
2022/05/07 04:43:39;;;;;;;4.07;3.87;;;;;;;;;;5052784;28;20473;-82
2022/05/07 04:46:05;;;;;;;4.40;3.67;;;;;;;;;;5052644;28;20423;-81
2022/05/07 04:48:31;;;;;;;4.07;3.63;;;;;;;;;;5052681;28;20402;-82
2022/05/07 04:50:57;;;;;;;3.30;3.20;;;;;;;;;;5052175;28;20978;-83
2022/05/07 04:53:23;;;;;;;5.20;3.57;;;;;;;;;;5054658;28;20747;-76
2022/05/07 04:55:50;;;;;;;3.90;3.70;;;;;;;;;;5056169;28;20556;-74
2022/05/07 04:58:16;;;;;;;3.63;3.37;;;;;;;;;;5056478;28;20411;-75
2022/05/07 05:00:42;;;;;;;3.07;2.87;;;;;;;;;;5056276;28;20782;-78
2022/05/07 05:03:10;;;;;;;7.23;2.70;;;;;;;;;;5056592;28;20415;-79
2022/05/07 05:05:38;;;;;;;5.07;3.93;;;;;;;;;;5056375;28;20437;-73
2022/05/07 05:08:04;;;;;;;5.37;3.53;;;;;;;;;;5056299;28;20860;-77
2022/05/07 05:10:30;;;;;;;7.70;3.83;;;;;;;;;;5055929;28;20873;-73
2022/05/07 05:12:56;;;;;;;3.33;3.23;;;;;;;;;;5056064;28;20426;-75
2022/05/07 05:15:22;;;;;;;5.60;3.47;;;;;;;;;;5056110;28;20410;-75
2022/05/07 05:17:48;;;;;;;3.47;3.27;;;;;;;;;;5055800;28;20433;-76
2022/05/07 05:20:14;;;;;;;3.80;3.60;;;;;;;;;;5055730;28;20446;-74
2022/05/07 05:22:46;;;;;;;3.80;3.50;;;;;;;;;;5056316;28;20456;-78
2022/05/07 05:25:12;;;;;;;3.83;3.53;;;;;;;;;;5055723;28;20390;-73
2022/05/07 05:27:38;;;;;;;4.20;4.00;;;;;;;;;;5055628;28;20422;-74
2022/05/07 05:30:04;;;;;;;4.00;3.67;;;;;;;;;;5055300;28;20435;-75
2022/05/07 05:32:30;;;;;;;3.30;3.10;;;;;;;;;;5055288;28;20458;-76
2022/05/07 05:34:56;;;;;;;3.23;3.13;;;;;;;;;;5055155;28;20575;-75
2022/05/07 05:37:22;;;;;;;3.67;3.53;;;;;;;;;;5055680;28;20414;-74
2022/05/07 05:39:48;;;;;;;4.63;3.60;;;;;;;;;;5055352;28;20904;-74
2022/05/07 05:42:14;;;;;;;5.80;5.50;;;;;;;;;;5055271;28;20425;-74
2022/05/07 05:44:40;;;;;;;7.53;5.43;;;;;;;;;;5055416;28;20450;-74
2022/05/07 05:47:06;;;;;;;10.00;3.97;;;;;;;;;;5055223;28;20445;-74
2022/05/07 05:49:33;;;;;;;4.40;4.10;;;;;;;;;;5055278;28;20472;-77
2022/05/07 05:52:00;;;;;;;4.53;4.13;;;;;;;;;;5055099;28;20501;-78
2022/05/07 05:54:26;;;;;;;8.60;4.23;;;;;;;;;;5055057;28;20457;-73
2022/05/07 05:56:52;;;;;;;4.50;4.10;;;;;;;;;;5055939;28;20422;-73
2022/05/07 05:59:18;;;;;;;3.93;3.73;;;;;;;;;;5055269;28;20886;-76
2022/05/07 06:01:44;;;;;;;7.10;4.97;;;;;;;;;;5055792;28;20434;-75
2022/05/07 06:04:10;;;;;;;5.90;4.50;;;;;;;;;;5054192;28;20419;-74
2022/05/07 06:06:37;;;;;;;7.87;4.30;;;;;;;;;;5055205;28;20419;-74
2022/05/07 06:09:03;;;;;;;4.30;4.20;;;;;;;;;;5055030;28;20414;-77
2022/05/07 06:11:29;;;;;;;3.80;3.67;;;;;;;;;;5054543;28;20477;-77
2022/05/07 06:13:55;;;;;;;4.73;4.30;;;;;;;;;;5054789;28;20417;-79
2022/05/07 06:16:21;;;;;;;4.30;3.93;;;;;;;;;;5054530;28;20795;-78
2022/05/07 06:18:47;;;;;;;4.20;4.00;;;;;;;;;;5054525;28;20419;-76
2022/05/07 06:21:13;;;;;;;8.03;6.07;;;;;;;;;;5054703;28;20419;-76
2022/05/07 06:23:39;;;;;;;3.23;3.10;;;;;;;;;;5054611;28;20433;-75
2022/05/07 06:28:50;;;;;;;4.37;4.07;;;;;;;;;;5054598;28;20441;-77
2022/05/07 06:31:17;;;;;;;4.10;4.00;;;;;;;;;;5053932;28;20864;-76
2022/05/07 06:33:43;;;;;;;4.20;4.00;;;;;;;;;;5054122;28;20859;-75
2022/05/07 06:36:10;;;;;;;4.53;4.30;;;;;;;;;;5054215;28;20413;-73
2022/05/07 06:38:36;;;;;;;4.93;4.50;;;;;;;;;;5054444;28;20407;-74
2022/05/07 06:41:05;;;;;;;3.63;3.43;;;;;;;;;;5054564;28;20842;-73
2022/05/07 06:43:33;;;;;;;5.43;4.10;;;;;;;;;;5053784;28;20425;-74
2022/05/07 06:46:00;;;;;;;4.93;3.97;;;;;;;;;;5054125;28;20922;-74
2022/05/07 06:48:26;;;;;;;4.60;4.30;;;;;;;;;;5054066;28;20509;-73
2022/05/07 06:50:52;;;;;;;4.03;3.93;;;;;;;;;;5053886;28;20482;-73
2022/05/07 06:53:18;;;;;;;4.60;4.30;;;;;;;;;;5054343;28;20488;-77
2022/05/07 06:55:58;;;;;;;4.40;4.20;;;;;;;;;;5054185;28;20414;-74
2022/05/07 06:58:30;;;;;;;4.13;3.73;;;;;;;;;;5053992;28;20771;-74
2022/05/07 07:00:57;;;;;;;7.20;4.20;;;;;;;;;;5054411;28;20493;-73
2022/05/07 07:06:26;;;;;;;3.53;3.43;;;;;;;;;;5053941;28;20386;-78
2022/05/07 07:08:53;;;;;;;4.07;3.73;;;;;;;;;;5053812;28;20516;-73
2022/05/07 07:11:20;;;;;;;4.53;3.67;;;;;;;;;;5053930;28;20559;-82
2022/05/07 07:13:46;;;;;;;3.70;3.50;;;;;;;;;;5052435;28;20775;-75
2022/05/07 07:16:13;;;;;;;4.10;4.00;;;;;;;;;;5052706;28;20427;-78
2022/05/07 07:18:39;;;;;;;4.17;3.97;;;;;;;;;;5053543;28;20410;-79
2022/05/07 07:21:05;;;;;;;3.20;3.10;;;;;;;;;;5053545;28;20429;-79
2022/05/07 07:23:31;;;;;;;5.40;3.73;;;;;;;;;;5053559;28;20882;-75
2022/05/07 07:25:57;;;;;;;4.70;4.10;;;;;;;;;;5052157;28;20431;-73
2022/05/07 07:28:23;;;;;;;4.10;3.80;;;;;;;;;;5053724;28;20415;-79
2022/05/07 07:30:49;;;;;;;4.97;4.50;;;;;;;;;;5053272;28;20992;-77
2022/05/07 07:33:15;;;;;;;4.70;4.57;;;;;;;;;;5053311;28;20414;-77
2022/05/07 07:35:44;;;;;;;4.40;4.20;;;;;;;;;;5053559;28;20456;-76
2022/05/07 07:38:11;;;;;;;3.90;3.70;;;;;;;;;;5053453;28;20491;-77
2022/05/07 07:40:37;;;;;;;8.97;4.90;;;;;;;;;;5053182;28;20770;-78
2022/05/07 07:43:03;;;;;;;4.27;4.17;;;;;;;;;;5053161;28;20553;-80
2022/05/07 07:48:15;;;;;;;4.67;4.47;;;;;;;;;;5053257;28;20386;-75
2022/05/07 07:50:41;;;;;;;4.57;4.40;;;;;;;;;;5052850;28;20489;-74
2022/05/07 07:53:08;;;;;;;8.43;7.07;;;;;;;;;;5053098;28;20422;-80
2022/05/07 07:55:36;;;;;;;4.80;4.50;;;;;;;;;;5053457;28;20418;-79
2022/05/07 07:58:04;;;;;;;3.53;3.43;;;;;;;;;;5052942;28;20520;-81
2022/05/07 08:00:30;;;;;;;4.57;4.20;;;;;;;;;;5053159;28;20411;-78
2022/05/07 08:03:00;;;;;;;4.10;3.80;;;;;;;;;;5052977;28;20438;-74
2022/05/07 08:05:30;;;;;;;5.13;4.73;;;;;;;;;;5052900;28;20415;-81
2022/05/07 08:16:30;;;;;;;4.40;4.20;;;;;;;;;;5052543;28;20417;-73
2022/05/07 08:18:56;;;;;;;5.13;4.67;;;;;;;;;;5053026;28;20438;-77
2022/05/07 08:21:22;;;;;;;4.43;4.33;;;;;;;;;;5052983;28;20399;-80
2022/05/07 08:23:48;;;;;;;3.97;3.77;;;;;;;;;;5052315;28;20763;-78
2022/05/07 08:26:15;;;;;;;4.57;4.17;;;;;;;;;;5052341;28;20413;-75
2022/05/07 08:28:41;;;;;;;3.80;3.70;;;;;;;;;;5055229;28;20417;-79
2022/05/07 08:31:07;;;;;;;3.40;3.20;;;;;;;;;;5056853;28;20493;-77
2022/05/07 08:33:34;;;;;;;4.33;2.87;;;;;;;;;;5056655;28;20414;-75
2022/05/07 08:36:00;;;;;;;3.03;3.00;;;;;;;;;;5056549;28;20422;-74
2022/05/07 08:38:26;;;;;;;3.80;3.60;;;;;;;;;;5056842;28;20471;-78
2022/05/07 08:40:52;;;;;;;7.33;3.70;;;;;;;;;;5056442;28;20567;-80
2022/05/07 08:43:19;;;;;;;3.57;3.27;;;;;;;;;;5056690;28;20495;-77
2022/05/07 08:45:45;;;;;;;3.10;2.90;;;;;;;;;;5056332;28;20425;-74
2022/05/07 08:48:12;;;;;;;4.60;4.20;;;;;;;;;;5056691;28;20517;-73
2022/05/07 08:50:39;;;;;;;3.57;3.37;;;;;;;;;;5056341;28;20484;-75
2022/05/07 08:53:05;;;;;;;2.93;2.73;;;;;;;;;;5056652;28;20450;-80
2022/05/07 08:55:31;;;;;;;2.70;2.60;;;;;;;;;;5056311;28;20967;-79
2022/05/07 08:57:58;;;;;;;3.23;3.17;;;;;;;;;;5056497;28;20449;-81
2022/05/07 09:00:24;;;;;;;3.53;3.43;;;;;;;;;;5056498;28;20815;-80
2022/05/07 09:03:08;;;;;;;3.47;3.37;;;;;;;;;;5056357;28;20793;-74
2022/05/07 09:05:35;;;;;;;5.43;3.97;;;;;;;;;;5056688;28;20390;-79
2022/05/07 09:08:02;;;;;;;3.37;3.23;;;;;;;;;;5056319;28;20438;-75
2022/05/07 09:10:30;;;;;;;3.43;3.17;;;;;;;;;;5056312;28;20443;-76
2022/05/07 09:13:00;;;;;;;4.07;3.50;;;;;;;;;;5055927;28;20431;-78
2022/05/07 09:15:26;;;;;;;4.10;2.10;;;;;;;;;;5055920;28;20419;-78
2022/05/07 09:17:52;;;;;;;16.50;5.97;;;;;;;;;;5055617;28;20769;-79
2022/05/07 09:20:21;;;;;;;2.23;2.10;;;;;;;;;;5056018;28;20419;-79
2022/05/07 09:22:56;;;;;;;3.63;2.93;;;;;;;;;;5055999;28;20509;-80
2022/05/07 09:25:23;;;;;;;2.37;2.20;;;;;;;;;;5054493;28;20433;-80
2022/05/07 09:27:51;;;;;;;1.70;1.70;;;;;;;;;;5055573;28;20464;-78
2022/05/07 09:30:24;;;;;;;3.00;2.30;;;;;;;;;;5055724;28;20414;-81
2022/05/07 09:32:51;;;;;;;1.90;1.80;;;;;;;;;;5055752;28;20433;-75
2022/05/07 09:38:02;;;;;;;4.33;2.23;;;;;;;;;;5056027;28;20390;-79
2022/05/07 09:40:29;;;;;;;2.27;2.17;;;;;;;;;;5054594;28;20422;-75
2022/05/07 09:42:58;;;;;;;2.00;1.77;;;;;;;;;;5055481;28;20468;-77
2022/05/07 09:45:30;;;;;;;2.43;1.87;;;;;;;;;;5055273;28;20421;-79
2022/05/07 09:47:56;;;;;;;2.67;2.20;;;;;;;;;;5055150;28;20487;-76
2022/05/07 09:50:24;;;;;;;3.13;2.30;;;;;;;;;;5055176;28;20478;-77
2022/05/07 09:58:20;;;;;;;2.70;1.90;;;;;;;;;;5055949;28;20410;-78
2022/05/07 10:00:58;;;;;;;2.13;1.90;;;;;;;;;;5054987;28;20791;-73
2022/05/07 10:03:28;;;;;;;1.57;1.57;;;;;;;;;;5055248;28;20405;-80
2022/05/07 10:06:08;;;;;;;1.60;1.50;;;;;;;;;;5055240;28;20506;-78
2022/05/07 10:08:53;;;;;;;4.37;2.73;;;;;;;;;;5055196;28;20398;-79
2022/05/07 10:11:20;;;;;;;4.00;1.67;;;;;;;;;;5054916;28;20548;-78
2022/05/07 10:13:52;;;;;;;2.70;2.07;;;;;;;;;;5055339;28;20406;-74
2022/05/07 10:16:22;;;;;;;2.00;1.90;;;;;;;;;;5054712;28;20414;-73
2022/05/07 10:18:48;;;;;;;3.70;1.63;;;;;;;;;;5054868;28;20418;-74
2022/05/07 10:21:15;;;;;;;1.60;1.57;;;;;;;;;;5055052;28;20510;-73
2022/05/07 10:23:55;;;;;;;1.63;1.60;;;;;;;;;;5055749;28;20426;-79
2022/05/07 10:26:22;;;;;;;1.57;1.57;;;;;;;;;;5054632;28;20407;-73
2022/05/07 10:28:48;;;;;;;3.63;2.07;;;;;;;;;;5054849;28;20509;-76
2022/05/07 10:31:21;;;;;;;3.67;1.40;;;;;;;;;;5054601;28;20573;-75
2022/05/07 10:33:48;;;;;;;1.80;1.70;;;;;;;;;;5054353;28;20796;-75
2022/05/07 10:36:17;;;;;;;1.27;1.27;;;;;;;;;;5054505;28;20468;-79
2022/05/07 10:38:44;;;;;;;1.73;1.60;;;;;;;;;;5054647;28;20410;-71
2022/05/07 10:41:14;;;;;;;1.33;1.20;;;;;;;;;;5054507;28;20418;-75
2022/05/07 10:43:44;;;;;;;1.00;1.00;;;;;;;;;;5054473;28;20756;-80
2022/05/07 10:46:12;;;;;;;1.10;1.10;;;;;;;;;;5054524;28;20425;-79
2022/05/07 10:48:52;;;;;;;0.93;0.93;;;;;;;;;;5054339;28;20418;-76
2022/05/07 10:51:24;;;;;;;1.50;1.50;;;;;;;;;;5053942;28;20481;-77
2022/05/07 10:53:50;;;;;;;1.27;1.17;;;;;;;;;;5054316;28;20422;-79
2022/05/07 10:56:20;;;;;;;1.43;1.30;;;;;;;;;;5053975;28;20940;-80
2022/05/07 10:58:50;;;;;;;1.87;1.77;;;;;;;;;;5054257;28;20446;-78
2022/05/07 11:01:17;;;;;;;1.30;1.17;;;;;;;;;;5054020;28;20479;-78
2022/05/07 11:03:44;;;;;;;1.37;1.37;;;;;;;;;;5054164;28;20415;-75
2022/05/07 11:06:10;;;;;;;2.17;2.17;;;;;;;;;;5053992;28;20534;-80
2022/05/07 11:08:56;;;;;;;2.87;1.53;;;;;;;;;;5053770;28;20437;-80
2022/05/07 11:11:24;;;;;;;1.50;1.50;;;;;;;;;;5054095;28;20814;-78
2022/05/07 11:13:52;;;;;;;1.27;1.27;;;;;;;;;;5053670;28;20907;-80
2022/05/07 11:16:18;;;;;;;1.73;1.33;;;;;;;;;;5053668;28;20422;-75
2022/05/07 11:18:45;;;;;;;2.40;2.07;;;;;;;;;;5054095;28;20937;-79
2022/05/07 11:21:12;;;;;;;1.70;1.60;;;;;;;;;;5054014;28;20419;-76
2022/05/07 11:23:39;;;;;;;3.70;1.50;;;;;;;;;;5053469;28;20418;-76
2022/05/07 11:26:12;;;;;;;1.33;1.33;;;;;;;;;;5053381;28;20419;-81
2022/05/07 11:28:39;;;;;;;4.40;2.10;;;;;;;;;;5053491;28;20418;-80
2022/05/07 11:31:05;;;;;;;1.43;1.30;;;;;;;;;;5053199;28;20961;-77
2022/05/07 11:33:31;;;;;;;2.00;1.90;;;;;;;;;;5053533;28;20430;-79
2022/05/07 11:36:07;;;;;;;3.33;1.50;;;;;;;;;;5053206;28;20505;-80
2022/05/07 11:38:36;;;;;;;1.70;1.70;;;;;;;;;;5053542;28;20422;-82
2022/05/07 11:41:15;;;;;;;9.67;1.80;;;;;;;;;;5053227;28;20414;-83
2022/05/07 11:46:26;;;;;;;1.63;1.50;;;;;;;;;;5053705;28;20425;-75
2022/05/07 11:48:52;;;;;;;1.40;1.33;;;;;;;;;;5053579;28;20425;-78
2022/05/07 11:51:25;;;;;;;1.53;1.00;;;;;;;;;;5052835;28;20580;-84
2022/05/07 11:53:51;;;;;;;2.20;1.33;;;;;;;;;;5053004;28;20410;-82
2022/05/07 11:56:18;;;;;;;1.57;1.57;;;;;;;;;;5053549;28;20487;-84
2022/05/07 11:58:46;;;;;;;4.83;1.30;;;;;;;;;;5053298;28;20441;-84
2022/05/07 12:01:18;;;;;;;2.40;1.47;;;;;;;;;;5053568;28;20418;-84
2022/05/07 12:03:44;;;;;;;4.10;1.90;;;;;;;;;;5052332;28;20410;-79
2022/05/07 12:06:12;;;;;;;1.53;1.43;;;;;;;;;;5053338;28;20413;-81
2022/05/07 12:08:38;;;;;;;1.43;1.43;;;;;;;;;;5051751;28;20497;-80
2022/05/07 12:11:05;;;;;;;25.03;4.33;;;;;;;;;;5052847;28;20489;-80
2022/05/07 12:13:31;;;;;;;1.47;1.47;;;;;;;;;;5052956;28;20434;-76
2022/05/07 12:18:47;;;;;;;1.27;1.17;;;;;;;;;;5053436;28;20456;-80
2022/05/07 12:21:13;;;;;;;1.60;1.60;;;;;;;;;;5053109;28;20403;-83
2022/05/07 12:31:53;;;;;;;1.00;1.00;;;;;;;;;;5052789;28;20519;-83
2022/05/07 12:34:19;;;;;;;1.10;1.10;;;;;;;;;;5053277;28;20445;-82
2022/05/07 12:36:46;;;;;;;2.53;1.20;;;;;;;;;;5053038;28;20426;-84
2022/05/07 12:39:12;;;;;;;1.60;1.60;;;;;;;;;;5053050;28;20410;-84
2022/05/07 12:41:41;;;;;;;2.67;1.40;;;;;;;;;;5052856;28;20480;-81
2022/05/07 12:44:07;;;;;;;1.67;1.30;;;;;;;;;;5052627;28;20442;-82
2022/05/07 12:46:33;;;;;;;7.53;2.33;;;;;;;;;;5052598;28;20450;-81
2022/05/07 12:48:59;;;;;;;1.23;1.23;;;;;;;;;;5052780;28;20501;-80
2022/05/07 12:51:25;;;;;;;1.20;1.20;;;;;;;;;;5051209;28;20620;-82
2022/05/07 12:53:52;;;;;;;1.37;1.33;;;;;;;;;;5052515;28;20922;-83
2022/05/07 12:56:18;;;;;;;2.83;1.60;;;;;;;;;;5052777;28;20430;-83
2022/05/07 12:58:44;;;;;;;0.90;0.90;;;;;;;;;;5052711;28;20789;-83
2022/05/07 13:01:12;;;;;;;0.90;0.90;;;;;;;;;;5052753;28;20422;-81
2022/05/07 13:03:38;;;;;;;2.90;1.80;;;;;;;;;;5052773;28;20497;-74
2022/05/07 13:06:04;;;;;;;1.70;1.30;;;;;;;;;;5052268;28;20852;-77
2022/05/07 13:08:30;;;;;;;1.30;1.20;;;;;;;;;;5052431;28;20909;-81
2022/05/07 13:10:57;;;;;;;1.30;1.30;;;;;;;;;;5052544;28;20579;-78
2022/05/07 13:13:24;;;;;;;7.30;1.63;;;;;;;;;;5052499;28;20423;-81
2022/05/07 13:15:51;;;;;;;1.53;1.30;;;;;;;;;;5054901;28;20751;-83
2022/05/07 13:18:17;;;;;;;1.80;1.40;;;;;;;;;;5056234;28;20423;-84
2022/05/07 13:20:43;;;;;;;4.63;1.47;;;;;;;;;;5055922;28;20433;-84
2022/05/07 13:23:12;;;;;;;4.43;1.30;;;;;;;;;;5056388;28;20406;-82
2022/05/07 13:25:38;;;;;;;1.10;1.10;;;;;;;;;;5055783;28;20774;-81
2022/05/07 13:28:04;;;;;;;2.00;1.53;;;;;;;;;;5056005;28;20414;-82
2022/05/07 13:30:31;;;;;;;1.70;1.70;;;;;;;;;;5055740;28;20419;-81
2022/05/07 13:32:57;;;;;;;2.30;1.43;;;;;;;;;;5055587;28;20427;-84
2022/05/07 13:35:24;;;;;;;2.77;2.13;;;;;;;;;;5055832;28;20469;-77
2022/05/07 13:37:50;;;;;;;1.30;1.30;;;;;;;;;;5055568;28;20430;-84
2022/05/07 13:40:16;;;;;;;1.53;1.53;;;;;;;;;;5055610;28;20415;-80
2022/05/07 13:42:42;;;;;;;1.00;1.00;;;;;;;;;;5055805;28;20422;-79
2022/05/07 13:45:09;;;;;;;4.50;1.97;;;;;;;;;;5055673;28;20414;-76
2022/05/07 13:47:36;;;;;;;1.60;1.50;;;;;;;;;;5055317;28;20414;-81
2022/05/07 13:50:04;;;;;;;1.30;1.30;;;;;;;;;;5055268;28;20462;-83
2022/05/07 13:52:30;;;;;;;2.80;1.50;;;;;;;;;;5055319;28;20508;-83
2022/05/07 13:54:56;;;;;;;2.43;1.50;;;;;;;;;;5055801;28;20407;-79
2022/05/07 13:57:22;;;;;;;2.83;1.30;;;;;;;;;;5055080;28;20414;-74
2022/05/07 13:59:48;;;;;;;1.43;1.43;;;;;;;;;;5055476;28;20410;-82
2022/05/07 14:02:14;;;;;;;3.87;1.60;;;;;;;;;;5055126;28;20422;-79
2022/05/07 14:04:41;;;;;;;1.50;1.40;;;;;;;;;;5055072;28;20416;-83
2022/05/07 14:07:07;;;;;;;1.67;1.50;;;;;;;;;;5055264;28;20525;-83
2022/05/07 14:09:33;;;;;;;1.63;1.53;;;;;;;;;;5055597;28;20450;-79
2022/05/07 14:12:00;;;;;;;1.03;1.03;;;;;;;;;;5054926;28;20480;-83
2022/05/07 14:14:27;;;;;;;2.87;1.10;;;;;;;;;;5055122;28;20910;-81
2022/05/07 14:16:53;;;;;;;4.13;1.80;;;;;;;;;;5055118;28;20469;-81
2022/05/07 14:19:19;;;;;;;1.70;1.60;;;;;;;;;;5054995;28;20419;-83
2022/05/07 14:21:45;;;;;;;4.23;1.20;;;;;;;;;;5054748;28;20422;-83
2022/05/07 14:24:11;;;;;;;1.63;1.50;;;;;;;;;;5054920;28;20777;-84
2022/05/07 14:26:37;;;;;;;1.30;1.30;;;;;;;;;;5054434;28;20433;-84
2022/05/07 14:29:03;;;;;;;1.20;1.20;;;;;;;;;;5054681;28;20553;-80
2022/05/07 14:31:29;;;;;;;1.07;1.07;;;;;;;;;;5054768;28;20548;-75
2022/05/07 14:33:55;;;;;;;1.03;1.03;;;;;;;;;;5054772;28;20426;-79
2022/05/07 14:36:21;;;;;;;0.90;0.90;;;;;;;;;;5054675;28;20407;-80
2022/05/07 14:38:47;;;;;;;2.40;1.30;;;;;;;;;;5055055;28;20545;-77
2022/05/07 14:41:13;;;;;;;6.77;1.17;;;;;;;;;;5054459;28;20415;-82
2022/05/07 14:43:39;;;;;;;1.33;1.20;;;;;;;;;;5054370;28;20410;-82
2022/05/07 14:46:05;;;;;;;1.80;1.70;;;;;;;;;;5054604;28;20417;-74
2022/05/07 14:48:31;;;;;;;3.13;1.93;;;;;;;;;;5054318;28;21099;-78
2022/05/07 14:50:57;;;;;;;1.50;1.40;;;;;;;;;;5054426;28;20478;-83
2022/05/07 14:53:23;;;;;;;4.53;1.27;;;;;;;;;;5054302;28;20448;-84
2022/05/07 14:55:49;;;;;;;2.50;1.10;;;;;;;;;;5054423;28;20435;-76
2022/05/07 14:58:15;;;;;;;3.03;1.50;;;;;;;;;;5054496;28;20414;-84
2022/05/07 15:00:42;;;;;;;1.87;1.17;;;;;;;;;;5055001;28;20431;-77
2022/05/07 15:03:08;;;;;;;1.13;1.07;;;;;;;;;;5054325;28;20422;-83
2022/05/07 15:05:34;;;;;;;3.40;1.17;;;;;;;;;;5054100;28;20423;-83
2022/05/07 15:10:35;;;;;;;2.90;1.10;;;;;;;;;;5054075;28;20497;-82
2022/05/07 15:10:46;;;;;;;1.37;1.23;;;;;;;;;;5054080;28;20472;-80
2022/05/07 15:13:12;;;;;;;1.57;1.43;;;;;;;;;;5054039;28;20521;-84
2022/05/07 15:15:39;;;;;;;1.40;1.30;;;;;;;;;;5053935;28;20891;-80
2022/05/07 15:18:05;;;;;;;8.43;1.70;;;;;;;;;;5054006;28;20430;-83
2022/05/07 15:20:31;;;;;;;1.07;1.07;;;;;;;;;;5054093;28;20870;-83
2022/05/07 15:22:57;;;;;;;5.50;1.40;;;;;;;;;;5054287;28;20904;-84
2022/05/07 15:25:24;;;;;;;5.67;1.10;;;;;;;;;;5053817;28;20460;-81
2022/05/07 15:27:49;;;;;;;1.87;1.50;;;;;;;;;;5053572;28;20926;-80
2022/05/07 15:30:17;;;;;;;3.43;1.00;;;;;;;;;;5053639;28;20430;-79
2022/05/07 15:38:15;;;;;;;2.40;1.17;;;;;;;;;;5053068;28;20464;-75
2022/05/07 15:40:41;;;;;;;1.30;1.30;;;;;;;;;;5053791;28;20415;-78
2022/05/07 15:43:07;;;;;;;3.20;1.07;;;;;;;;;;5053470;28;20422;-83